sensor_id;sensor_type;location;lat;lon;timestamp;P1;durP1;ratioP1;P2;durP2;ratioP2
23155;SDS011;11746;50.876;4.246;2023-11-21T00:00:17;27.67;;;16.88;;
23155;SDS011;11746;50.876;4.246;2023-11-21T00:02:48;27.52;;;17.23;;
23155;SDS011;11746;50.876;4.246;2023-11-21T00:05:13;26.98;;;16.23;;
23155;SDS011;11746;50.876;4.246;2023-11-21T00:07:42;29.75;;;17.98;;
23155;SDS011;11746;50.876;4.246;2023-11-21T00:10:10;25.92;;;16.35;;
23155;SDS011;11746;50.876;4.246;2023-11-21T00:12:37;32.05;;;16.77;;
23155;SDS011;11746;50.876;4.246;2023-11-21T00:15:07;25.35;;;14.80;;
23155;SDS011;11746;50.876;4.246;2023-11-21T00:17:36;27.73;;;15.20;;
23155;SDS011;11746;50.876;4.246;2023-11-21T00:20:03;24.58;;;14.27;;
23155;SDS011;11746;50.876;4.246;2023-11-21T00:22:31;25.98;;;15.98;;
23155;SDS011;11746;50.876;4.246;2023-11-21T00:25:01;26.13;;;16.38;;
23155;SDS011;11746;50.876;4.246;2023-11-21T00:27:28;30.33;;;14.35;;
23155;SDS011;11746;50.876;4.246;2023-11-21T00:29:59;20.90;;;14.05;;
23155;SDS011;11746;50.876;4.246;2023-11-21T00:32:24;24.50;;;14.02;;
23155;SDS011;11746;50.876;4.246;2023-11-21T00:34:50;46.65;;;14.18;;
23155;SDS011;11746;50.876;4.246;2023-11-21T00:37:16;22.08;;;12.93;;
23155;SDS011;11746;50.876;4.246;2023-11-21T00:39:43;23.05;;;13.65;;
23155;SDS011;11746;50.876;4.246;2023-11-21T00:42:14;37.63;;;12.57;;
23155;SDS011;11746;50.876;4.246;2023-11-21T00:44:40;39.38;;;12.43;;
23155;SDS011;11746;50.876;4.246;2023-11-21T00:47:08;37.67;;;12.55;;
23155;SDS011;11746;50.876;4.246;2023-11-21T00:49:35;23.42;;;13.40;;
23155;SDS011;11746;50.876;4.246;2023-11-21T00:52:04;22.30;;;13.10;;
23155;SDS011;11746;50.876;4.246;2023-11-21T00:54:34;21.02;;;12.05;;
23155;SDS011;11746;50.876;4.246;2023-11-21T00:57:03;22.92;;;13.23;;
23155;SDS011;11746;50.876;4.246;2023-11-21T00:59:29;18.17;;;11.40;;
23155;SDS011;11746;50.876;4.246;2023-11-21T01:01:55;17.33;;;11.43;;
23155;SDS011;11746;50.876;4.246;2023-11-21T01:04:21;19.75;;;12.38;;
23155;SDS011;11746;50.876;4.246;2023-11-21T01:06:49;19.65;;;11.32;;
23155;SDS011;11746;50.876;4.246;2023-11-21T01:09:14;23.52;;;14.23;;
23155;SDS011;11746;50.876;4.246;2023-11-21T01:11:43;24.88;;;14.45;;
23155;SDS011;11746;50.876;4.246;2023-11-21T01:14:12;22.98;;;13.10;;
23155;SDS011;11746;50.876;4.246;2023-11-21T01:16:38;23.33;;;13.43;;
23155;SDS011;11746;50.876;4.246;2023-11-21T01:19:04;22.20;;;13.18;;
23155;SDS011;11746;50.876;4.246;2023-11-21T01:21:29;23.70;;;14.00;;
23155;SDS011;11746;50.876;4.246;2023-11-21T01:23:55;27.45;;;14.30;;
23155;SDS011;11746;50.876;4.246;2023-11-21T01:26:23;25.85;;;14.43;;
23155;SDS011;11746;50.876;4.246;2023-11-21T01:28:53;22.08;;;13.68;;
23155;SDS011;11746;50.876;4.246;2023-11-21T01:31:19;24.25;;;14.02;;
23155;SDS011;11746;50.876;4.246;2023-11-21T01:33:45;22.67;;;13.65;;
23155;SDS011;11746;50.876;4.246;2023-11-21T01:36:14;26.13;;;15.20;;
23155;SDS011;11746;50.876;4.246;2023-11-21T01:38:39;26.60;;;13.70;;
23155;SDS011;11746;50.876;4.246;2023-11-21T01:41:07;22.83;;;13.60;;
23155;SDS011;11746;50.876;4.246;2023-11-21T01:43:40;20.98;;;13.20;;
23155;SDS011;11746;50.876;4.246;2023-11-21T01:46:09;22.05;;;14.52;;
23155;SDS011;11746;50.876;4.246;2023-11-21T01:48:37;23.15;;;13.65;;
23155;SDS011;11746;50.876;4.246;2023-11-21T01:51:03;19.88;;;13.35;;
23155;SDS011;11746;50.876;4.246;2023-11-21T01:53:30;20.10;;;13.07;;
23155;SDS011;11746;50.876;4.246;2023-11-21T01:55:55;22.35;;;13.65;;
23155;SDS011;11746;50.876;4.246;2023-11-21T01:58:24;21.42;;;13.45;;
23155;SDS011;11746;50.876;4.246;2023-11-21T02:00:52;20.75;;;14.05;;
23155;SDS011;11746;50.876;4.246;2023-11-21T02:03:20;23.63;;;14.43;;
23155;SDS011;11746;50.876;4.246;2023-11-21T02:05:46;22.38;;;14.65;;
23155;SDS011;11746;50.876;4.246;2023-11-21T02:08:12;27.02;;;14.68;;
23155;SDS011;11746;50.876;4.246;2023-11-21T02:10:39;24.23;;;14.93;;
23155;SDS011;11746;50.876;4.246;2023-11-21T02:13:07;20.60;;;13.73;;
23155;SDS011;11746;50.876;4.246;2023-11-21T02:15:33;19.90;;;13.80;;
23155;SDS011;11746;50.876;4.246;2023-11-21T02:17:58;24.25;;;14.60;;
23155;SDS011;11746;50.876;4.246;2023-11-21T02:20:30;23.75;;;14.32;;
23155;SDS011;11746;50.876;4.246;2023-11-21T02:23:00;22.92;;;14.18;;
23155;SDS011;11746;50.876;4.246;2023-11-21T02:25:27;22.35;;;14.25;;
23155;SDS011;11746;50.876;4.246;2023-11-21T02:28:02;23.80;;;13.88;;
23155;SDS011;11746;50.876;4.246;2023-11-21T02:30:31;24.20;;;14.52;;
23155;SDS011;11746;50.876;4.246;2023-11-21T02:33:00;23.20;;;13.60;;
23155;SDS011;11746;50.876;4.246;2023-11-21T02:35:26;24.63;;;13.88;;
23155;SDS011;11746;50.876;4.246;2023-11-21T02:37:56;23.58;;;14.55;;
23155;SDS011;11746;50.876;4.246;2023-11-21T02:40:21;24.73;;;14.52;;
23155;SDS011;11746;50.876;4.246;2023-11-21T02:42:49;23.50;;;13.32;;
23155;SDS011;11746;50.876;4.246;2023-11-21T02:45:23;20.40;;;12.82;;
23155;SDS011;11746;50.876;4.246;2023-11-21T02:47:52;23.02;;;13.45;;
23155;SDS011;11746;50.876;4.246;2023-11-21T02:50:21;22.45;;;14.25;;
23155;SDS011;11746;50.876;4.246;2023-11-21T02:52:50;24.42;;;13.95;;
23155;SDS011;11746;50.876;4.246;2023-11-21T02:55:16;24.33;;;14.75;;
23155;SDS011;11746;50.876;4.246;2023-11-21T02:57:44;21.73;;;13.32;;
23155;SDS011;11746;50.876;4.246;2023-11-21T03:00:09;23.50;;;13.48;;
23155;SDS011;11746;50.876;4.246;2023-11-21T03:02:38;23.42;;;14.07;;
23155;SDS011;11746;50.876;4.246;2023-11-21T03:05:06;24.35;;;13.73;;
23155;SDS011;11746;50.876;4.246;2023-11-21T03:07:33;23.05;;;14.10;;
23155;SDS011;11746;50.876;4.246;2023-11-21T03:10:04;23.98;;;14.05;;
23155;SDS011;11746;50.876;4.246;2023-11-21T03:12:31;21.63;;;13.38;;
23155;SDS011;11746;50.876;4.246;2023-11-21T03:14:56;22.20;;;12.68;;
23155;SDS011;11746;50.876;4.246;2023-11-21T03:17:29;20.20;;;13.00;;
23155;SDS011;11746;50.876;4.246;2023-11-21T03:19:55;19.98;;;12.23;;
23155;SDS011;11746;50.876;4.246;2023-11-21T03:22:22;24.75;;;13.95;;
23155;SDS011;11746;50.876;4.246;2023-11-21T03:24:48;26.38;;;13.90;;
23155;SDS011;11746;50.876;4.246;2023-11-21T03:27:14;20.85;;;13.30;;
23155;SDS011;11746;50.876;4.246;2023-11-21T03:29:39;26.67;;;14.00;;
23155;SDS011;11746;50.876;4.246;2023-11-21T03:32:07;23.45;;;13.50;;
23155;SDS011;11746;50.876;4.246;2023-11-21T03:34:33;22.52;;;14.55;;
23155;SDS011;11746;50.876;4.246;2023-11-21T03:37:01;21.38;;;13.38;;
23155;SDS011;11746;50.876;4.246;2023-11-21T03:39:29;22.80;;;13.70;;
23155;SDS011;11746;50.876;4.246;2023-11-21T03:41:57;25.10;;;13.13;;
23155;SDS011;11746;50.876;4.246;2023-11-21T03:44:25;24.23;;;13.60;;
23155;SDS011;11746;50.876;4.246;2023-11-21T03:46:52;21.58;;;13.50;;
23155;SDS011;11746;50.876;4.246;2023-11-21T03:49:18;27.10;;;13.90;;
23155;SDS011;11746;50.876;4.246;2023-11-21T03:51:44;20.02;;;13.68;;
23155;SDS011;11746;50.876;4.246;2023-11-21T03:54:12;20.48;;;13.68;;
23155;SDS011;11746;50.876;4.246;2023-11-21T03:56:39;20.90;;;13.05;;
23155;SDS011;11746;50.876;4.246;2023-11-21T03:59:04;21.73;;;13.43;;
23155;SDS011;11746;50.876;4.246;2023-11-21T04:01:33;18.38;;;12.40;;
23155;SDS011;11746;50.876;4.246;2023-11-21T04:04:00;20.48;;;12.43;;
23155;SDS011;11746;50.876;4.246;2023-11-21T04:06:26;23.10;;;13.30;;
23155;SDS011;11746;50.876;4.246;2023-11-21T04:08:52;21.95;;;12.93;;
23155;SDS011;11746;50.876;4.246;2023-11-21T04:11:18;23.65;;;13.45;;
23155;SDS011;11746;50.876;4.246;2023-11-21T04:13:43;20.15;;;13.45;;
23155;SDS011;11746;50.876;4.246;2023-11-21T04:16:14;18.70;;;12.82;;
23155;SDS011;11746;50.876;4.246;2023-11-21T04:18:40;20.83;;;13.18;;
23155;SDS011;11746;50.876;4.246;2023-11-21T04:21:10;17.45;;;12.32;;
23155;SDS011;11746;50.876;4.246;2023-11-21T04:23:36;21.45;;;13.32;;
23155;SDS011;11746;50.876;4.246;2023-11-21T04:26:01;23.75;;;12.98;;
23155;SDS011;11746;50.876;4.246;2023-11-21T04:28:27;23.10;;;13.23;;
23155;SDS011;11746;50.876;4.246;2023-11-21T04:30:53;23.10;;;12.35;;
23155;SDS011;11746;50.876;4.246;2023-11-21T04:33:22;18.55;;;12.45;;
23155;SDS011;11746;50.876;4.246;2023-11-21T04:35:47;19.92;;;12.73;;
23155;SDS011;11746;50.876;4.246;2023-11-21T04:40:48;20.13;;;13.85;;
23155;SDS011;11746;50.876;4.246;2023-11-21T04:43:16;20.00;;;14.18;;
23155;SDS011;11746;50.876;4.246;2023-11-21T04:45:44;20.92;;;13.40;;
23155;SDS011;11746;50.876;4.246;2023-11-21T04:48:12;19.48;;;13.30;;
23155;SDS011;11746;50.876;4.246;2023-11-21T04:50:37;20.60;;;13.05;;
23155;SDS011;11746;50.876;4.246;2023-11-21T04:53:03;22.65;;;13.02;;
23155;SDS011;11746;50.876;4.246;2023-11-21T04:55:32;22.92;;;14.27;;
23155;SDS011;11746;50.876;4.246;2023-11-21T04:58:01;21.30;;;14.15;;
23155;SDS011;11746;50.876;4.246;2023-11-21T05:00:26;18.50;;;13.15;;
23155;SDS011;11746;50.876;4.246;2023-11-21T05:02:52;20.27;;;13.40;;
23155;SDS011;11746;50.876;4.246;2023-11-21T05:05:18;23.20;;;14.02;;
23155;SDS011;11746;50.876;4.246;2023-11-21T05:07:45;21.20;;;14.38;;
23155;SDS011;11746;50.876;4.246;2023-11-21T05:10:13;25.20;;;14.10;;
23155;SDS011;11746;50.876;4.246;2023-11-21T05:12:41;25.00;;;14.55;;
23155;SDS011;11746;50.876;4.246;2023-11-21T05:15:10;22.35;;;14.02;;
23155;SDS011;11746;50.876;4.246;2023-11-21T05:17:42;20.85;;;13.23;;
23155;SDS011;11746;50.876;4.246;2023-11-21T05:20:11;25.58;;;15.25;;
23155;SDS011;11746;50.876;4.246;2023-11-21T05:22:46;20.90;;;14.73;;
23155;SDS011;11746;50.876;4.246;2023-11-21T05:25:13;23.40;;;14.25;;
23155;SDS011;11746;50.876;4.246;2023-11-21T05:27:43;21.48;;;14.48;;
23155;SDS011;11746;50.876;4.246;2023-11-21T05:30:13;21.25;;;13.68;;
23155;SDS011;11746;50.876;4.246;2023-11-21T05:32:39;20.65;;;13.98;;
23155;SDS011;11746;50.876;4.246;2023-11-21T05:35:10;20.75;;;13.27;;
23155;SDS011;11746;50.876;4.246;2023-11-21T05:37:41;21.00;;;14.45;;
23155;SDS011;11746;50.876;4.246;2023-11-21T05:40:09;20.40;;;14.75;;
23155;SDS011;11746;50.876;4.246;2023-11-21T05:42:35;19.23;;;14.00;;
23155;SDS011;11746;50.876;4.246;2023-11-21T05:45:03;19.88;;;15.45;;
23155;SDS011;11746;50.876;4.246;2023-11-21T05:47:39;22.45;;;14.68;;
23155;SDS011;11746;50.876;4.246;2023-11-21T05:50:06;22.55;;;15.38;;
23155;SDS011;11746;50.876;4.246;2023-11-21T05:52:40;24.25;;;14.80;;
23155;SDS011;11746;50.876;4.246;2023-11-21T05:55:12;26.05;;;16.10;;
23155;SDS011;11746;50.876;4.246;2023-11-21T05:57:41;23.23;;;15.73;;
23155;SDS011;11746;50.876;4.246;2023-11-21T06:00:08;21.35;;;15.23;;
23155;SDS011;11746;50.876;4.246;2023-11-21T06:02:40;25.88;;;15.70;;
23155;SDS011;11746;50.876;4.246;2023-11-21T06:05:09;28.08;;;15.55;;
23155;SDS011;11746;50.876;4.246;2023-11-21T06:07:35;24.33;;;15.63;;
23155;SDS011;11746;50.876;4.246;2023-11-21T06:10:05;22.10;;;15.20;;
23155;SDS011;11746;50.876;4.246;2023-11-21T06:12:35;24.48;;;15.60;;
23155;SDS011;11746;50.876;4.246;2023-11-21T06:15:04;21.45;;;15.25;;
23155;SDS011;11746;50.876;4.246;2023-11-21T06:17:32;24.45;;;14.85;;
23155;SDS011;11746;50.876;4.246;2023-11-21T06:19:58;20.30;;;14.38;;
23155;SDS011;11746;50.876;4.246;2023-11-21T06:22:25;22.90;;;15.30;;
23155;SDS011;11746;50.876;4.246;2023-11-21T06:24:51;21.33;;;15.15;;
23155;SDS011;11746;50.876;4.246;2023-11-21T06:27:19;24.98;;;16.00;;
23155;SDS011;11746;50.876;4.246;2023-11-21T06:29:49;25.55;;;15.35;;
23155;SDS011;11746;50.876;4.246;2023-11-21T06:32:17;23.30;;;15.30;;
23155;SDS011;11746;50.876;4.246;2023-11-21T06:34:42;26.23;;;16.30;;
23155;SDS011;11746;50.876;4.246;2023-11-21T06:37:10;24.92;;;16.38;;
23155;SDS011;11746;50.876;4.246;2023-11-21T06:39:36;22.85;;;15.05;;
23155;SDS011;11746;50.876;4.246;2023-11-21T06:42:04;23.45;;;16.13;;
23155;SDS011;11746;50.876;4.246;2023-11-21T06:44:30;24.75;;;14.70;;
23155;SDS011;11746;50.876;4.246;2023-11-21T06:46:56;25.23;;;15.23;;
23155;SDS011;11746;50.876;4.246;2023-11-21T06:49:24;25.80;;;16.40;;
23155;SDS011;11746;50.876;4.246;2023-11-21T06:51:54;25.13;;;16.40;;
23155;SDS011;11746;50.876;4.246;2023-11-21T06:54:20;23.40;;;15.43;;
23155;SDS011;11746;50.876;4.246;2023-11-21T06:56:46;22.83;;;14.98;;
23155;SDS011;11746;50.876;4.246;2023-11-21T06:59:16;29.50;;;18.58;;
23155;SDS011;11746;50.876;4.246;2023-11-21T07:01:42;29.70;;;17.48;;
23155;SDS011;11746;50.876;4.246;2023-11-21T07:04:08;29.77;;;17.25;;
23155;SDS011;11746;50.876;4.246;2023-11-21T07:06:36;23.15;;;16.98;;
23155;SDS011;11746;50.876;4.246;2023-11-21T07:09:02;27.10;;;17.33;;
23155;SDS011;11746;50.876;4.246;2023-11-21T07:11:28;23.83;;;17.15;;
23155;SDS011;11746;50.876;4.246;2023-11-21T07:13:54;27.05;;;18.23;;
23155;SDS011;11746;50.876;4.246;2023-11-21T07:16:22;26.40;;;17.17;;
23155;SDS011;11746;50.876;4.246;2023-11-21T07:18:48;28.77;;;17.58;;
23155;SDS011;11746;50.876;4.246;2023-11-21T07:21:14;28.70;;;17.30;;
23155;SDS011;11746;50.876;4.246;2023-11-21T07:23:41;25.83;;;17.83;;
23155;SDS011;11746;50.876;4.246;2023-11-21T07:26:06;27.92;;;17.27;;
23155;SDS011;11746;50.876;4.246;2023-11-21T07:28:34;28.83;;;17.73;;
23155;SDS011;11746;50.876;4.246;2023-11-21T07:31:00;27.88;;;17.38;;
23155;SDS011;11746;50.876;4.246;2023-11-21T07:33:31;26.38;;;17.90;;
23155;SDS011;11746;50.876;4.246;2023-11-21T07:35:56;26.05;;;16.52;;
23155;SDS011;11746;50.876;4.246;2023-11-21T07:38:22;28.90;;;16.25;;
23155;SDS011;11746;50.876;4.246;2023-11-21T07:40:48;26.20;;;16.40;;
23155;SDS011;11746;50.876;4.246;2023-11-21T07:43:13;27.60;;;17.10;;
23155;SDS011;11746;50.876;4.246;2023-11-21T07:45:41;27.58;;;16.90;;
23155;SDS011;11746;50.876;4.246;2023-11-21T07:48:07;25.80;;;17.42;;
23155;SDS011;11746;50.876;4.246;2023-11-21T07:50:33;27.23;;;17.30;;
23155;SDS011;11746;50.876;4.246;2023-11-21T07:52:58;27.88;;;17.15;;
23155;SDS011;11746;50.876;4.246;2023-11-21T07:55:26;26.33;;;17.02;;
23155;SDS011;11746;50.876;4.246;2023-11-21T07:57:57;33.38;;;18.15;;
23155;SDS011;11746;50.876;4.246;2023-11-21T08:00:25;25.05;;;16.80;;
23155;SDS011;11746;50.876;4.246;2023-11-21T08:02:55;33.90;;;18.40;;
23155;SDS011;11746;50.876;4.246;2023-11-21T08:05:20;28.70;;;17.63;;
23155;SDS011;11746;50.876;4.246;2023-11-21T08:07:48;30.20;;;17.80;;
23155;SDS011;11746;50.876;4.246;2023-11-21T08:10:14;32.60;;;18.05;;
23155;SDS011;11746;50.876;4.246;2023-11-21T08:12:41;30.33;;;18.38;;
23155;SDS011;11746;50.876;4.246;2023-11-21T08:15:07;34.90;;;18.48;;
23155;SDS011;11746;50.876;4.246;2023-11-21T08:17:34;32.38;;;18.52;;
23155;SDS011;11746;50.876;4.246;2023-11-21T08:20:00;29.77;;;17.17;;
23155;SDS011;11746;50.876;4.246;2023-11-21T08:22:27;30.45;;;17.65;;
23155;SDS011;11746;50.876;4.246;2023-11-21T08:24:52;29.67;;;18.60;;
23155;SDS011;11746;50.876;4.246;2023-11-21T08:27:20;33.20;;;18.73;;
23155;SDS011;11746;50.876;4.246;2023-11-21T08:29:46;30.27;;;18.25;;
23155;SDS011;11746;50.876;4.246;2023-11-21T08:32:12;32.40;;;18.63;;
23155;SDS011;11746;50.876;4.246;2023-11-21T08:34:37;32.80;;;18.38;;
23155;SDS011;11746;50.876;4.246;2023-11-21T08:37:07;35.00;;;18.63;;
23155;SDS011;11746;50.876;4.246;2023-11-21T08:39:32;35.55;;;19.65;;
23155;SDS011;11746;50.876;4.246;2023-11-21T08:41:58;35.53;;;19.88;;
23155;SDS011;11746;50.876;4.246;2023-11-21T08:44:23;34.88;;;20.23;;
23155;SDS011;11746;50.876;4.246;2023-11-21T08:46:50;29.73;;;19.17;;
23155;SDS011;11746;50.876;4.246;2023-11-21T08:49:15;33.88;;;19.27;;
23155;SDS011;11746;50.876;4.246;2023-11-21T08:51:42;34.67;;;19.67;;
23155;SDS011;11746;50.876;4.246;2023-11-21T08:54:12;34.08;;;18.85;;
23155;SDS011;11746;50.876;4.246;2023-11-21T08:56:37;35.53;;;20.10;;
23155;SDS011;11746;50.876;4.246;2023-11-21T08:59:05;32.90;;;19.27;;
23155;SDS011;11746;50.876;4.246;2023-11-21T09:01:33;35.40;;;20.40;;
23155;SDS011;11746;50.876;4.246;2023-11-21T09:04:01;35.17;;;19.55;;
23155;SDS011;11746;50.876;4.246;2023-11-21T09:06:27;31.77;;;17.90;;
23155;SDS011;11746;50.876;4.246;2023-11-21T09:08:53;30.70;;;17.75;;
23155;SDS011;11746;50.876;4.246;2023-11-21T09:11:21;26.50;;;16.65;;
23155;SDS011;11746;50.876;4.246;2023-11-21T09:13:46;30.10;;;17.55;;
23155;SDS011;11746;50.876;4.246;2023-11-21T09:16:13;28.88;;;16.77;;
23155;SDS011;11746;50.876;4.246;2023-11-21T09:18:40;33.55;;;18.27;;
23155;SDS011;11746;50.876;4.246;2023-11-21T09:21:06;27.88;;;17.02;;
23155;SDS011;11746;50.876;4.246;2023-11-21T09:23:32;26.65;;;16.38;;
23155;SDS011;11746;50.876;4.246;2023-11-21T09:25:57;31.15;;;18.10;;
23155;SDS011;11746;50.876;4.246;2023-11-21T09:28:28;30.63;;;16.95;;
23155;SDS011;11746;50.876;4.246;2023-11-21T09:30:53;30.23;;;17.60;;
23155;SDS011;11746;50.876;4.246;2023-11-21T09:33:19;25.98;;;15.50;;
23155;SDS011;11746;50.876;4.246;2023-11-21T09:35:47;30.80;;;15.95;;
23155;SDS011;11746;50.876;4.246;2023-11-21T09:38:13;27.40;;;16.48;;
23155;SDS011;11746;50.876;4.246;2023-11-21T09:40:39;23.05;;;14.75;;
23155;SDS011;11746;50.876;4.246;2023-11-21T09:43:06;23.50;;;14.27;;
23155;SDS011;11746;50.876;4.246;2023-11-21T09:45:44;22.27;;;14.38;;
23155;SDS011;11746;50.876;4.246;2023-11-21T09:48:21;24.70;;;14.18;;
23155;SDS011;11746;50.876;4.246;2023-11-21T09:50:50;25.50;;;13.75;;
23155;SDS011;11746;50.876;4.246;2023-11-21T09:53:18;21.02;;;13.55;;
23155;SDS011;11746;50.876;4.246;2023-11-21T09:55:48;24.35;;;13.93;;
23155;SDS011;11746;50.876;4.246;2023-11-21T09:58:16;25.20;;;14.57;;
23155;SDS011;11746;50.876;4.246;2023-11-21T10:00:45;26.90;;;14.93;;
23155;SDS011;11746;50.876;4.246;2023-11-21T10:03:15;26.52;;;16.05;;
23155;SDS011;11746;50.876;4.246;2023-11-21T10:05:43;27.08;;;15.60;;
23155;SDS011;11746;50.876;4.246;2023-11-21T10:08:11;25.20;;;16.05;;
23155;SDS011;11746;50.876;4.246;2023-11-21T10:10:38;29.17;;;17.23;;
23155;SDS011;11746;50.876;4.246;2023-11-21T10:13:13;27.58;;;17.52;;
23155;SDS011;11746;50.876;4.246;2023-11-21T10:15:49;30.80;;;17.80;;
23155;SDS011;11746;50.876;4.246;2023-11-21T10:18:16;30.88;;;18.35;;
23155;SDS011;11746;50.876;4.246;2023-11-21T10:20:42;28.05;;;17.48;;
23155;SDS011;11746;50.876;4.246;2023-11-21T10:23:16;32.20;;;19.33;;
23155;SDS011;11746;50.876;4.246;2023-11-21T10:25:47;28.02;;;17.13;;
23155;SDS011;11746;50.876;4.246;2023-11-21T10:28:16;26.13;;;17.60;;
23155;SDS011;11746;50.876;4.246;2023-11-21T10:30:42;26.60;;;17.70;;
23155;SDS011;11746;50.876;4.246;2023-11-21T10:33:09;25.80;;;16.77;;
23155;SDS011;11746;50.876;4.246;2023-11-21T10:35:42;22.52;;;16.27;;
23155;SDS011;11746;50.876;4.246;2023-11-21T10:38:13;23.23;;;15.55;;
23155;SDS011;11746;50.876;4.246;2023-11-21T10:40:42;22.38;;;15.27;;
23155;SDS011;11746;50.876;4.246;2023-11-21T10:43:09;22.42;;;15.70;;
23155;SDS011;11746;50.876;4.246;2023-11-21T10:45:39;24.15;;;16.48;;
23155;SDS011;11746;50.876;4.246;2023-11-21T10:48:09;18.95;;;14.68;;
23155;SDS011;11746;50.876;4.246;2023-11-21T10:50:42;21.08;;;14.88;;
23155;SDS011;11746;50.876;4.246;2023-11-21T10:53:16;20.80;;;14.32;;
23155;SDS011;11746;50.876;4.246;2023-11-21T10:55:42;20.55;;;15.35;;
23155;SDS011;11746;50.876;4.246;2023-11-21T10:58:09;20.98;;;14.10;;
23155;SDS011;11746;50.876;4.246;2023-11-21T11:00:38;22.50;;;14.73;;
23155;SDS011;11746;50.876;4.246;2023-11-21T11:03:05;20.58;;;14.68;;
23155;SDS011;11746;50.876;4.246;2023-11-21T11:05:37;20.35;;;14.00;;
23155;SDS011;11746;50.876;4.246;2023-11-21T11:08:04;18.10;;;13.48;;
23155;SDS011;11746;50.876;4.246;2023-11-21T11:10:31;20.17;;;13.90;;
23155;SDS011;11746;50.876;4.246;2023-11-21T11:12:57;22.38;;;15.25;;
23155;SDS011;11746;50.876;4.246;2023-11-21T11:15:24;23.27;;;15.52;;
23155;SDS011;11746;50.876;4.246;2023-11-21T11:17:54;24.83;;;15.90;;
23155;SDS011;11746;50.876;4.246;2023-11-21T11:20:23;17.48;;;13.27;;
23155;SDS011;11746;50.876;4.246;2023-11-21T11:28:07;18.02;;;13.02;;
23155;SDS011;11746;50.876;4.246;2023-11-21T11:36:04;17.52;;;13.95;;
23155;SDS011;11746;50.876;4.246;2023-11-21T11:38:36;19.77;;;16.83;;
23155;SDS011;11746;50.876;4.246;2023-11-21T11:41:07;17.63;;;13.27;;
23155;SDS011;11746;50.876;4.246;2023-11-21T11:43:36;16.80;;;10.73;;
23155;SDS011;11746;50.876;4.246;2023-11-21T11:46:09;12.93;;;9.55;;
23155;SDS011;11746;50.876;4.246;2023-11-21T11:48:38;12.57;;;8.95;;
23155;SDS011;11746;50.876;4.246;2023-11-21T11:51:14;11.82;;;9.63;;
23155;SDS011;11746;50.876;4.246;2023-11-21T11:53:42;12.57;;;8.38;;
23155;SDS011;11746;50.876;4.246;2023-11-21T11:56:30;13.82;;;8.48;;
23155;SDS011;11746;50.876;4.246;2023-11-21T11:58:59;12.52;;;8.13;;
23155;SDS011;11746;50.876;4.246;2023-11-21T12:01:30;10.90;;;6.95;;
23155;SDS011;11746;50.876;4.246;2023-11-21T12:04:41;11.70;;;7.75;;
23155;SDS011;11746;50.876;4.246;2023-11-21T12:06:56;11.05;;;7.03;;
23155;SDS011;11746;50.876;4.246;2023-11-21T12:09:27;8.50;;;5.43;;
23155;SDS011;11746;50.876;4.246;2023-11-21T12:11:55;11.82;;;5.65;;
23155;SDS011;11746;50.876;4.246;2023-11-21T12:14:25;11.10;;;5.35;;
23155;SDS011;11746;50.876;4.246;2023-11-21T12:16:53;10.90;;;6.10;;
23155;SDS011;11746;50.876;4.246;2023-11-21T12:19:22;12.77;;;5.60;;
23155;SDS011;11746;50.876;4.246;2023-11-21T12:21:47;11.10;;;4.68;;
23155;SDS011;11746;50.876;4.246;2023-11-21T12:24:14;7.63;;;4.43;;
23155;SDS011;11746;50.876;4.246;2023-11-21T12:26:41;8.57;;;4.03;;
23155;SDS011;11746;50.876;4.246;2023-11-21T12:29:07;10.43;;;4.90;;
23155;SDS011;11746;50.876;4.246;2023-11-21T12:31:33;11.02;;;4.80;;
23155;SDS011;11746;50.876;4.246;2023-11-21T12:34:01;13.10;;;5.78;;
23155;SDS011;11746;50.876;4.246;2023-11-21T12:36:28;11.00;;;5.07;;
23155;SDS011;11746;50.876;4.246;2023-11-21T12:38:56;9.90;;;5.68;;
23155;SDS011;11746;50.876;4.246;2023-11-21T12:41:24;11.02;;;5.30;;
23155;SDS011;11746;50.876;4.246;2023-11-21T12:43:50;10.73;;;5.50;;
23155;SDS011;11746;50.876;4.246;2023-11-21T12:46:16;13.93;;;5.57;;
23155;SDS011;11746;50.876;4.246;2023-11-21T12:48:42;10.52;;;5.25;;
23155;SDS011;11746;50.876;4.246;2023-11-21T12:51:10;10.55;;;5.50;;
23155;SDS011;11746;50.876;4.246;2023-11-21T12:53:41;12.52;;;5.60;;
23155;SDS011;11746;50.876;4.246;2023-11-21T12:56:09;12.55;;;5.50;;
23155;SDS011;11746;50.876;4.246;2023-11-21T12:58:39;9.65;;;5.78;;
23155;SDS011;11746;50.876;4.246;2023-11-21T13:01:10;11.55;;;5.85;;
23155;SDS011;11746;50.876;4.246;2023-11-21T13:03:38;8.38;;;5.30;;
23155;SDS011;11746;50.876;4.246;2023-11-21T13:06:07;16.13;;;5.13;;
23155;SDS011;11746;50.876;4.246;2023-11-21T13:08:35;7.78;;;5.53;;
23155;SDS011;11746;50.876;4.246;2023-11-21T13:11:04;9.13;;;4.90;;
23155;SDS011;11746;50.876;4.246;2023-11-21T13:13:33;10.13;;;4.78;;
23155;SDS011;11746;50.876;4.246;2023-11-21T13:16:00;11.70;;;5.30;;
23155;SDS011;11746;50.876;4.246;2023-11-21T13:18:27;6.72;;;4.70;;
23155;SDS011;11746;50.876;4.246;2023-11-21T13:20:57;8.88;;;5.13;;
23155;SDS011;11746;50.876;4.246;2023-11-21T13:23:27;8.82;;;5.68;;
23155;SDS011;11746;50.876;4.246;2023-11-21T13:25:56;9.02;;;5.57;;
23155;SDS011;11746;50.876;4.246;2023-11-21T13:31:00;8.50;;;5.88;;
23155;SDS011;11746;50.876;4.246;2023-11-21T13:33:46;8.45;;;6.00;;
23155;SDS011;11746;50.876;4.246;2023-11-21T13:36:20;9.25;;;6.35;;
23155;SDS011;11746;50.876;4.246;2023-11-21T13:38:49;9.23;;;6.47;;
23155;SDS011;11746;50.876;4.246;2023-11-21T13:41:18;10.85;;;7.57;;
23155;SDS011;11746;50.876;4.246;2023-11-21T13:43:58;14.32;;;7.25;;
23155;SDS011;11746;50.876;4.246;2023-11-21T13:46:40;11.00;;;7.30;;
23155;SDS011;11746;50.876;4.246;2023-11-21T13:49:09;11.55;;;7.13;;
23155;SDS011;11746;50.876;4.246;2023-11-21T13:51:35;13.32;;;8.18;;
23155;SDS011;11746;50.876;4.246;2023-11-21T13:54:09;12.10;;;8.30;;
23155;SDS011;11746;50.876;4.246;2023-11-21T13:56:35;13.05;;;7.82;;
23155;SDS011;11746;50.876;4.246;2023-11-21T13:59:02;9.00;;;7.50;;
23155;SDS011;11746;50.876;4.246;2023-11-21T14:01:38;10.60;;;7.32;;
23155;SDS011;11746;50.876;4.246;2023-11-21T14:04:19;9.05;;;6.93;;
23155;SDS011;11746;50.876;4.246;2023-11-21T14:07:04;11.02;;;6.50;;
23155;SDS011;11746;50.876;4.246;2023-11-21T14:09:47;8.32;;;6.25;;
23155;SDS011;11746;50.876;4.246;2023-11-21T14:12:14;8.02;;;6.15;;
23155;SDS011;11746;50.876;4.246;2023-11-21T14:14:42;8.32;;;5.00;;
23155;SDS011;11746;50.876;4.246;2023-11-21T14:17:09;7.95;;;5.35;;
23155;SDS011;11746;50.876;4.246;2023-11-21T14:19:37;6.57;;;5.03;;
23155;SDS011;11746;50.876;4.246;2023-11-21T14:22:07;6.72;;;4.85;;
23155;SDS011;11746;50.876;4.246;2023-11-21T14:24:35;9.55;;;5.35;;
23155;SDS011;11746;50.876;4.246;2023-11-21T14:27:08;7.78;;;5.03;;
23155;SDS011;11746;50.876;4.246;2023-11-21T14:29:35;7.65;;;4.93;;
23155;SDS011;11746;50.876;4.246;2023-11-21T14:32:06;5.68;;;4.60;;
23155;SDS011;11746;50.876;4.246;2023-11-21T14:34:32;6.38;;;4.78;;
23155;SDS011;11746;50.876;4.246;2023-11-21T14:36:58;6.43;;;4.65;;
23155;SDS011;11746;50.876;4.246;2023-11-21T14:39:24;5.35;;;4.05;;
23155;SDS011;11746;50.876;4.246;2023-11-21T14:41:53;5.30;;;3.80;;
23155;SDS011;11746;50.876;4.246;2023-11-21T14:44:20;6.63;;;3.80;;
23155;SDS011;11746;50.876;4.246;2023-11-21T14:46:49;6.95;;;3.38;;